National Weather Service Raw Text Product

Displaying AFOS PIL: TAFMCW Received: 2017-09-14 05:20 UTC


931 
FTUS43 KDMX 140520
TAFMCW
TAF
KMCW 140520Z 1406/1506 18004KT P6SM SCT150
     FM141600 18011G17KT P6SM SKC
     FM142100 17012G21KT P6SM FEW220
     FM142300 16008KT P6SM BKN110 BKN200=